»·PEaware :: N800DW MMMX-KPHX

N800DW :: MMMX-KPHX

FLIGHT INFORMATION

Flight Status: Arrived
Operator: Privately registered:
United States
More flights under this callsign
Pilot: Scott L. (17677)
Aircraft: CESSNA 510 CITATION MUSTANG
(C510)
More flights by this aircraft type
Origin: MMMX Lic Benito Juarez Intl
Mexico
Destination: KPHX Phoenix Sky Harbor Intl
United States
More flights between these airports :: More routes between these airports
Route: +PTJ5B PTJ DCT BECON DRRVR PINNG1
File this flight plan on PilotEdge
Remarks:
Altitude:
(Current/Filed)
36,000ft
Speed:
(Current/Filed)
400kts
Departed: 20-Sep-19 05:32 AM
Arrived: 20-Sep-19 08:49 AM
Distance/Time
Traveled:
1088nm/3:16
Distance/Time
To Go:
Arrived

Flight Plot

Page will automatically refresh every two minutes.

Flight plan parsing failed; only flown route is shown


Map Options




Map Legend


Flown Route
Filed Route
Departure Airport
Arrival Airport
Navaid (VOR, NDB)
Fix

Horizontal Profiles

Position Reports

Time Latitude Longitude Heading Altitude Ground
Speed
20-Sep-19 05:30 19.398473 -99.288219 297 24653ft 314kts
20-Sep-19 05:31 19.438489 -99.370422 297 26653ft 311kts
20-Sep-19 05:32 19.477830 -99.451366 297 28647ft 305kts
20-Sep-19 05:33 19.516147 -99.530329 297 30626ft 298kts
20-Sep-19 05:34 19.552981 -99.606338 298 32581ft 287kts
20-Sep-19 05:35 19.587427 -99.677525 297 34349ft 279kts
20-Sep-19 05:36 19.625556 -99.756272 297 34393ft 323kts
20-Sep-19 05:37 19.677072 -99.836594 311 34388ft 345kts
20-Sep-19 05:38 19.740880 -99.914964 311 34387ft 360kts
20-Sep-19 05:39 19.806601 -99.995860 311 34386ft 368kts
20-Sep-19 05:40 19.873670 -100.078606 311 34376ft 374kts
20-Sep-19 05:41 19.941385 -100.162243 311 34332ft 378kts
20-Sep-19 05:42 20.010006 -100.247141 311 34321ft 380kts
20-Sep-19 05:43 20.078699 -100.332237 311 34320ft 380kts
20-Sep-19 05:44 20.146224 -100.416027 311 34299ft 381kts
20-Sep-19 05:45 20.215281 -100.501844 311 34289ft 382kts
20-Sep-19 05:46 20.284117 -100.587482 311 34300ft 382kts
20-Sep-19 05:47 20.352867 -100.673161 311 34296ft 382kts
20-Sep-19 05:48 20.421107 -100.758352 311 34298ft 381kts
20-Sep-19 05:49 20.489742 -100.844288 311 34310ft 381kts
20-Sep-19 05:50 20.558172 -100.930179 312 34300ft 380kts
20-Sep-19 05:51 20.626549 -101.015711 313 34306ft 377kts
20-Sep-19 05:52 20.694103 -101.100220 313 34309ft 372kts
20-Sep-19 05:53 20.760664 -101.183812 312 34309ft 370kts
20-Sep-19 05:54 20.826757 -101.266985 312 34309ft 368kts
20-Sep-19 05:55 20.892830 -101.350315 313 34309ft 368kts
20-Sep-19 05:56 20.958765 -101.433550 312 34309ft 367kts
20-Sep-19 05:57 21.025771 -101.515376 315 34309ft 367kts
20-Sep-19 05:58 21.094811 -101.595805 314 34310ft 368kts
20-Sep-19 05:59 21.162604 -101.674951 314 34311ft 369kts
20-Sep-19 06:00 21.232375 -101.756567 314 34311ft 370kts
20-Sep-19 06:01 21.302087 -101.838142 314 34303ft 371kts
20-Sep-19 06:02 21.371710 -101.919667 314 34294ft 371kts
20-Sep-19 06:03 21.441485 -102.001480 314 34293ft 371kts
20-Sep-19 06:04 21.511261 -102.083389 314 34292ft 371kts
20-Sep-19 06:05 21.581028 -102.165409 314 34292ft 371kts
20-Sep-19 06:06 21.650585 -102.247327 314 34292ft 371kts
20-Sep-19 06:07 21.725017 -102.322237 342 34294ft 364kts
20-Sep-19 06:08 21.821753 -102.353759 345 34292ft 364kts
20-Sep-19 06:09 21.918876 -102.384541 345 34292ft 364kts
20-Sep-19 06:10 22.016131 -102.415343 345 34292ft 364kts
20-Sep-19 06:11 22.112300 -102.445818 345 34294ft 364kts
20-Sep-19 06:12 22.210265 -102.476922 345 34294ft 365kts
20-Sep-19 06:13 22.307711 -102.507917 345 34290ft 365kts
20-Sep-19 06:14 22.405436 -102.539049 345 34285ft 365kts
20-Sep-19 06:15 22.503031 -102.570178 345 34284ft 365kts
20-Sep-19 06:16 22.600482 -102.601313 345 34284ft 365kts
20-Sep-19 06:17 22.698027 -102.632521 345 34283ft 365kts
20-Sep-19 06:18 22.794657 -102.663494 344 34282ft 365kts
20-Sep-19 06:19 22.892010 -102.694448 347 34279ft 365kts
20-Sep-19 06:20 22.990610 -102.720337 348 34281ft 365kts
20-Sep-19 06:21 23.089403 -102.746223 348 34282ft 366kts
20-Sep-19 06:22 23.187926 -102.772049 348 34283ft 368kts
20-Sep-19 06:23 23.287596 -102.798249 348 34283ft 368kts
20-Sep-19 06:24 23.387095 -102.824453 348 34283ft 369kts
20-Sep-19 06:25 23.486999 -102.850806 348 34283ft 369kts
20-Sep-19 06:26 23.586976 -102.877220 348 34283ft 369kts
20-Sep-19 06:27 23.686822 -102.903641 348 34283ft 369kts
20-Sep-19 06:28 23.786777 -102.930126 348 34282ft 369kts
20-Sep-19 06:29 23.886571 -102.956607 348 34282ft 369kts
20-Sep-19 06:30 23.986672 -102.983178 348 34282ft 369kts
20-Sep-19 06:31 24.086324 -103.009686 348 34280ft 369kts
20-Sep-19 06:32 24.185846 -103.036209 347 34276ft 368kts
20-Sep-19 06:33 24.285406 -103.062797 347 34273ft 368kts
20-Sep-19 06:34 24.384811 -103.089388 347 34269ft 368kts
20-Sep-19 06:35 24.484108 -103.115986 347 34266ft 368kts
20-Sep-19 06:36 24.583251 -103.142605 347 34259ft 367kts
20-Sep-19 06:37 24.682772 -103.169350 347 34255ft 367kts
20-Sep-19 06:38 24.781951 -103.196089 346 34255ft 367kts
20-Sep-19 06:39 24.880693 -103.222793 346 34255ft 367kts
20-Sep-19 06:40 24.979983 -103.249639 346 34255ft 367kts
20-Sep-19 06:41 25.079091 -103.276320 345 34255ft 369kts
20-Sep-19 06:42 25.178526 -103.303493 346 34256ft 371kts
20-Sep-19 06:43 25.279009 -103.330787 346 34256ft 373kts
20-Sep-19 06:44 25.379468 -103.358104 346 34256ft 374kts
20-Sep-19 06:45 25.480740 -103.385701 346 34256ft 374kts
20-Sep-19 06:46 25.579125 -103.420149 324 34262ft 373kts
20-Sep-19 06:47 25.664298 -103.486895 324 34256ft 374kts
20-Sep-19 06:48 25.749172 -103.553405 324 34256ft 374kts
20-Sep-19 06:49 25.834297 -103.620231 324 34256ft 375kts
20-Sep-19 06:50 25.919406 -103.687172 324 34256ft 375kts
20-Sep-19 06:51 26.004415 -103.754151 324 34256ft 375kts
20-Sep-19 06:52 26.089289 -103.821143 324 34256ft 375kts
20-Sep-19 06:53 26.173709 -103.887908 324 34256ft 375kts
20-Sep-19 06:54 26.259050 -103.955510 324 34256ft 375kts
20-Sep-19 06:55 26.344265 -104.023151 324 34256ft 375kts
20-Sep-19 06:56 26.429591 -104.090997 324 34256ft 375kts
20-Sep-19 06:57 26.511849 -104.156525 324 34256ft 375kts
20-Sep-19 06:58 26.597198 -104.224639 324 34251ft 375kts
20-Sep-19 06:59 26.682254 -104.292645 324 34211ft 376kts
20-Sep-19 07:00 26.767741 -104.361120 324 34148ft 377kts
20-Sep-19 07:01 26.853171 -104.429675 324 34127ft 377kts
20-Sep-19 07:02 26.938061 -104.497741 323 34127ft 375kts
20-Sep-19 07:03 27.022954 -104.565953 322 34091ft 376kts
20-Sep-19 07:05 27.107396 -104.634310 322 34107ft 374kts
20-Sep-19 07:06 27.191244 -104.702208 322 34141ft 372kts
20-Sep-19 07:07 27.275200 -104.770244 322 34146ft 372kts
20-Sep-19 07:08 27.358987 -104.838252 322 34146ft 372kts
20-Sep-19 07:09 27.442981 -104.906513 322 34146ft 372kts
20-Sep-19 07:10 27.526948 -104.974805 321 34146ft 373kts
20-Sep-19 07:11 27.610671 -105.043120 321 34146ft 374kts
20-Sep-19 07:12 27.694861 -105.111984 321 34146ft 375kts
20-Sep-19 07:13 27.779547 -105.181492 320 34147ft 377kts
20-Sep-19 07:14 27.864092 -105.250981 320 34147ft 378kts
20-Sep-19 07:15 27.948819 -105.320713 321 34147ft 378kts
20-Sep-19 07:16 28.033670 -105.390675 321 34147ft 378kts
20-Sep-19 07:17 28.117831 -105.460205 321 34143ft 378kts
20-Sep-19 07:18 28.202668 -105.530427 321 34143ft 378kts
20-Sep-19 07:19 28.287500 -105.600792 321 34143ft 378kts
20-Sep-19 07:20 28.370544 -105.669812 320 34147ft 378kts
20-Sep-19 07:21 28.455630 -105.740673 320 34147ft 378kts
20-Sep-19 07:22 28.540119 -105.811178 320 34147ft 379kts
20-Sep-19 07:23 28.624623 -105.881839 320 34147ft 379kts
20-Sep-19 07:24 28.709342 -105.952624 323 34142ft 380kts
20-Sep-19 07:25 28.812952 -105.981843 345 34147ft 387kts
20-Sep-19 07:26 28.918296 -106.006881 345 34147ft 387kts
20-Sep-19 07:26 29.006078 -106.027688 345 34148ft 388kts
20-Sep-19 07:28 29.129224 -106.056771 342 34143ft 389kts
20-Sep-19 07:28 29.217457 -106.078259 342 34144ft 389kts
20-Sep-19 07:29 29.322902 -106.103796 342 34144ft 389kts
20-Sep-19 07:31 29.446768 -106.133688 342 34145ft 389kts
20-Sep-19 07:31 29.533765 -106.154648 342 34142ft 377kts
20-Sep-19 07:32 29.634448 -106.178997 342 34144ft 368kts
20-Sep-19 07:33 29.733048 -106.202924 342 34145ft 363kts
20-Sep-19 07:34 29.831160 -106.226772 342 34146ft 361kts
20-Sep-19 07:35 29.929651 -106.250753 342 34146ft 360kts
20-Sep-19 07:36 30.027397 -106.274596 342 34147ft 360kts
20-Sep-19 07:37 30.114523 -106.295888 342 34136ft 360kts
20-Sep-19 07:38 30.209175 -106.319058 342 34102ft 359kts
20-Sep-19 07:39 30.306887 -106.343023 342 34087ft 359kts
20-Sep-19 07:40 30.404257 -106.366955 342 34088ft 358kts
20-Sep-19 07:41 30.501429 -106.390889 342 34088ft 358kts
20-Sep-19 07:42 30.598584 -106.414868 342 34089ft 358kts
20-Sep-19 07:43 30.696052 -106.438973 342 34089ft 358kts
20-Sep-19 07:44 30.793105 -106.463025 342 34089ft 358kts
20-Sep-19 07:45 30.890475 -106.487199 342 34090ft 359kts
20-Sep-19 07:46 30.988105 -106.511138 341 34090ft 360kts
20-Sep-19 07:47 31.086065 -106.535582 340 34092ft 362kts
20-Sep-19 07:48 31.183155 -106.560108 340 34083ft 363kts
20-Sep-19 07:49 31.282168 -106.584966 340 34084ft 364kts
20-Sep-19 07:50 31.380983 -106.609778 340 34084ft 364kts
20-Sep-19 07:51 31.480048 -106.634695 340 34085ft 364kts
20-Sep-19 07:52 31.579397 -106.659730 339 34095ft 365kts
20-Sep-19 07:53 31.678801 -106.684851 339 34096ft 366kts
20-Sep-19 07:54 31.774866 -106.718591 307 34080ft 344kts
20-Sep-19 07:55 31.804358 -106.818456 275 34098ft 326kts
20-Sep-19 07:56 31.821826 -106.924300 274 34096ft 331kts
20-Sep-19 07:57 31.839352 -107.034458 275 34097ft 350kts
20-Sep-19 07:58 31.857499 -107.148866 275 34097ft 358kts
20-Sep-19 07:59 31.875842 -107.265403 275 34099ft 362kts
20-Sep-19 08:00 31.894188 -107.382948 275 34095ft 364kts
20-Sep-19 08:01 31.912480 -107.501165 275 34090ft 365kts
20-Sep-19 08:02 31.930716 -107.619706 275 34086ft 365kts
20-Sep-19 08:03 31.948182 -107.733818 275 34107ft 367kts
20-Sep-19 08:04 31.966264 -107.852942 275 34105ft 369kts
20-Sep-19 08:05 31.984310 -107.972731 275 34104ft 369kts
20-Sep-19 08:06 32.002322 -108.092777 275 34103ft 369kts
20-Sep-19 08:07 32.020174 -108.212566 275 34108ft 369kts
20-Sep-19 08:08 32.037856 -108.332301 275 34134ft 369kts
20-Sep-19 08:09 32.055413 -108.451813 275 34163ft 368kts
20-Sep-19 08:10 32.072798 -108.571045 275 34171ft 368kts
20-Sep-19 08:11 32.090042 -108.690147 274 34182ft 368kts
20-Sep-19 08:12 32.107213 -108.809397 274 34165ft 369kts
20-Sep-19 08:13 32.125076 -108.920814 287 34133ft 378kts
20-Sep-19 08:14 32.148707 -109.035814 270 34152ft 365kts
20-Sep-19 08:15 32.160953 -109.155014 271 34089ft 365kts
20-Sep-19 08:16 32.173815 -109.276457 271 32282ft 376kts
20-Sep-19 08:17 32.198319 -109.398398 278 30433ft 383kts
20-Sep-19 08:18 32.224107 -109.520698 278 28580ft 383kts
20-Sep-19 08:19 32.249836 -109.642926 278 27007ft 375kts
20-Sep-19 08:20 32.271448 -109.745617 277 27026ft 361kts
20-Sep-19 08:21 32.295714 -109.862069 277 26847ft 368kts
20-Sep-19 08:22 32.321200 -109.985417 278 25262ft 391kts
20-Sep-19 08:23 32.346837 -110.108831 278 25002ft 377kts
20-Sep-19 08:24 32.371318 -110.227761 278 25000ft 369kts
20-Sep-19 08:25 32.395404 -110.345599 278 24998ft 366kts
20-Sep-19 08:26 32.419189 -110.462552 278 24995ft 364kts
20-Sep-19 08:27 32.442735 -110.578893 278 24994ft 364kts
20-Sep-19 08:28 32.465886 -110.693919 277 25002ft 364kts
20-Sep-19 08:29 32.521277 -110.800854 297 24130ft 393kts
20-Sep-19 08:30 32.582171 -110.907823 297 22532ft 388kts
20-Sep-19 08:31 32.641421 -111.011350 297 21961ft 364kts
20-Sep-19 08:32 32.696893 -111.108715 296 21962ft 350kts
20-Sep-19 08:33 32.750964 -111.204205 296 21963ft 345kts
20-Sep-19 08:34 32.804288 -111.298647 296 21963ft 344kts
20-Sep-19 08:35 32.857567 -111.393148 296 21806ft 341kts
20-Sep-19 08:36 32.908016 -111.482874 296 19397ft 321kts
20-Sep-19 08:37 32.963857 -111.567554 302 16492ft 326kts
20-Sep-19 08:38 33.019815 -111.651448 302 13603ft 324kts
20-Sep-19 08:39 33.075296 -111.734234 303 11192ft 311kts
20-Sep-19 08:40 33.128239 -111.813827 304 9303ft 308kts
20-Sep-19 08:41 33.181039 -111.893369 305 7989ft 292kts
20-Sep-19 08:42 33.229681 -111.966987 304 7357ft 291kts
20-Sep-19 08:43 33.279696 -112.047819 304 5360ft 308kts
20-Sep-19 08:44 33.342253 -112.099573 344 3967ft 219kts
20-Sep-19 08:45 33.399530 -112.105736 358 2838ft 176kts
20-Sep-19 08:46 33.426965 -112.078322 77 2051ft 142kts
20-Sep-19 08:47 33.429062 -112.038129 91 1360ft 107kts
20-Sep-19 08:48 33.428087 -112.016667 205 1113ft 11kts
20-Sep-19 08:49 33.427713 -112.023941 243 1113ft 16kts
20-Sep-19 08:50 33.426645 -112.023752 34 1114ft 0kts
20-Sep-19 08:51 33.426645 -112.023752 34 1114ft 0kts
20-Sep-19 08:52 33.426645 -112.023752 34 1114ft 0kts
20-Sep-19 08:53 33.426645 -112.023752 34 1114ft 0kts
20-Sep-19 08:54 33.426645 -112.023752 34 1114ft 0kts
20-Sep-19 08:55 33.426645 -112.023752 34 1114ft 0kts
20-Sep-19 08:56 33.426645 -112.023752 34 1114ft 0kts
20-Sep-19 08:57 33.426645 -112.023752 34 1114ft 0kts
20-Sep-19 08:58 33.426645 -112.023752 34 1114ft 0kts
20-Sep-19 08:59 33.426645 -112.023752 34 1114ft 0kts
20-Sep-19 09:00 33.426645 -112.023752 34 1114ft 0kts
20-Sep-19 09:01 33.426645 -112.023752 34 1114ft 0kts
20-Sep-19 09:02 33.426645 -112.023752 34 1114ft 0kts

Navigation Log

Ident Type
Flight plan parsing failed, navigation log unavailable